AirNav   Air Wisconsin Up To $57,000 Bonus
 
 1072 users online  

GA75 Meadowlark Airport
Concord, Georgia, USA

GOING TO CONCORD?


FAA INFORMATION EFFECTIVE 15 AUGUST 2019

Location

FAA Identifier: GA75
Lat/Long: 33-05-14.4480N 084-24-18.7210W
33-05.240800N 084-24.312017W
33.0873467,-84.4052003
(estimated)
Elevation: 784 ft. / 239 m (estimated)
Variation: 02W (1985)
From city: 3 miles E of CONCORD, GA
Time zone: UTC -4 (UTC -5 during Standard Time)
Zip code: 30206

Airport Operations

Airport use: Private use. Permission required prior to landing
Activation date: 12/1976
Control tower: no
ARTCC: ATLANTA CENTER
FSS: MACON FLIGHT SERVICE STATION
Attendance: IREG
Wind indicator: yes
Segmented circle: no

Airport Communications

WX AWOS-3 at 6A2 (11 nm NE): 119.750 (770-227-3934)
WX AWOS-3 at OPN (11 nm SE): 133.975 (706-646-4123)
WX ASOS at FFC (18 nm NW): 118.525 (770-487-1610)
WX AWOS-3 at HMP (19 nm N): 124.825 (770-707-1719)

Nearby radio navigation aids

VOR radial/distance  VOR name  Freq  Var
ATLr182/32.5ATLANTA VORTAC116.9005W

 
NDB name  Hdg/Dist  Freq  Var  ID
PECAT167/13.431605WFFC ..-. ..-. -.-.
YATES316/14.933903WOP --- .--.
COWETA COUNTY126/18.523403WEQQ . --.- --.-
PINE MOUNTAIN061/27.727203WPIM .--. .. --

Airport Services

Runway Information

Runway 18/36

Dimensions: 2700 x 200 ft. / 823 x 61 m
Surface: turf
RUNWAY 18  RUNWAY 36
Traffic pattern: rightleft
Obstructions: 35 ft. pline, marked, 500 ft. from runwaytrees, 2000 ft. from runway

Airport Ownership and Management from official FAA records

Ownership: Privately-owned
Owner: PHILLIP R. LABERGE
BOX 236
CONCORD, GA 30206
Phone 770-884-3748
Manager: PHILLIP R. LABERGE
BOX 236
CONCORD, GA 30206
Phone 770-884-3748

Airport Operational Statistics

Aircraft based on the field: 10
Single engine airplanes: 7
Gliders airplanes: 3
    

Additional Remarks

INTENSE GLIDER ACTIVITY. GLIDER FREQUENCY 123.3.
FOR CD CTC ATLANTA APCH AT 678-364-6131.

Instrument Procedures

There are no published instrument procedures at GA75.

Some nearby airports with instrument procedures:

6A2 - Griffin-Spalding County Airport (11 nm NE)
KOPN - Thomaston-Upson County Airport (11 nm SE)
KFFC - Atlanta Regional Airport-Falcon Field (18 nm NW)
KHMP - Henry County Airport (19 nm N)
KCCO - Newnan Coweta County Airport (23 nm NW)
 
Loc | Ops | Rwys | IFR | FBO | Links
Com | Nav | Svcs | Stats | Notes
Area around GA75 (Meadowlark Airport)
 
Road maps at: MapQuest Bing Google
 
Aerial photo
WARNING: Photo may not be current or correct
Aerial photo of GA75 (Meadowlark Airport)
Photo taken 26-Sep-2007

Do you have a better or more recent aerial photo of Meadowlark Airport that you would like to share? If so, please send us your photo.

 
Sectional chart

 
Airport distance calculator
Flying to Meadowlark Airport? Find the distance to fly.

From to GA75

Sunrise and sunset
Times for 25-Aug-2019
 Local
(UTC-4)
 Zulu
(UTC)
Morning civil twilight06:4310:43
Sunrise07:0811:08
Sunset20:1100:11
Evening civil twilight20:3700:37

Current date and time
Zulu (UTC)  25-Aug-2019 19:40:09
Local (UTC-4)  25-Aug-2019 15:40:09
 
METAR
K6A2 
11nm NE 
251915Z AUTO 15005KT 10SM OVC016 23/19 A3008 RMK AO2
KOPN 
11nm SE 
251915Z AUTO 07006KT 10SM OVC016 24/17 A3008 RMK AO2 LTG DSNT SW
KFFC 
18nm NW 
251853Z AUTO 09006KT 10SM OVC018 24/19 A3008 RMK AO2 SLP181 T02440189
TAF
KATL 
33nm N 
251735Z 2518/2624 10010G16KT P6SM VCSH OVC016 FM252000 09010KT P6SM VCSH SCT025 OVC035 FM260500 10010KT P6SM OVC025 FM261000 10010KT P6SM OVC009 FM261600 11010KT P6SM VCSH OVC012 FM261800 11008KT P6SM VCSH OVC020 PROB30 2618/2624 4SM TSRA OVC015CB
NOTAMs
Click for the latest NOTAMs
NOTAMs are issued by the DoD/FAA and will open in a separate window not controlled by AirNav.

 

 
 

Would you like to see your business listed on this page?

 If your business provides an interesting product or service to pilots, flight crews, aircraft, or users of the Meadowlark Airport, you should consider listing it here.  To start the listing process, click on the button below
 
Add a business
 

Other Pages about Meadowlark Airport

Update a link
 
Copyright © AirNav, LLC. All rights reserved. Privacy Policy  Contact